Clark, Missouri
Current Conditions -  °F | °C
As of 4:15 PM on Tuesday 25 Nov 2014 (Local Time) from KVER Reporting Station
Clear Clear  
Wind Chill: 39°   Ceiling: Unl
Heat Index: 39°   Visibility: 10mi
Dew Point: 13°   Wind: 3mph
Humidity: 35%   Direction: 230°SW
Pressure: 30.14"   Gusts: NA
Location:  39.28°N, 92.34°W
Report Text: KVER 252215Z AUTO 23003KT 10SM CLR 04/M10 A3014 RMK AO2 T00401104
Loading
Personal Weather Stations






























Interactive Weather Map New forecast layout! Learn more

10-Day Weather Forecast

Advertisements
Track Severe Weather on mobile